HBIKS LIEO-LFKF
Flight info
| Callsign | HBIKS |
|---|---|
| Flight time | 0h 17m |
| Altitude | 22000 |
| Route | OLBEK DCT ASKAG |
| Aircraft | CL60/M-SBDE1E2E3FGHIJ1J4J5J7M3RWXYZ/LB1V1D1 |
Departure
| Time | 2026-04-28 21:15 |
|---|---|
| Airport | Olbia Costa Smeralda Airport (LIEO) |
Arrival
| Time | 2026-04-28 21:32 |
|---|---|
| Airport | Figari Sud-Corse Airport (LFKF) |
| Time | Latitude | Longitude | Altitude | Speed | Heading |
|---|---|---|---|---|---|
| 2026-04-28 20:57 | 40.89628 | 9.50357 | 46 ft | 0 kts | 101° |
| 2026-04-28 21:12 | 40.89624 | 9.50370 | 45 ft | 3 kts | 128° |
| 2026-04-28 21:12 | 40.89592 | 9.50352 | 45 ft | 8 kts | 235° |
| 2026-04-28 21:12 | 40.89550 | 9.50274 | 45 ft | 12 kts | 222° |
| 2026-04-28 21:12 | 40.89468 | 9.50318 | 45 ft | 15 kts | 147° |
| 2026-04-28 21:13 | 40.89418 | 9.50360 | 45 ft | 0 kts | 148° |
| 2026-04-28 21:13 | 40.89417 | 9.50361 | 45 ft | 1 kts | 148° |
| 2026-04-28 21:13 | 40.89381 | 9.50386 | 45 ft | 9 kts | 160° |
| 2026-04-28 21:14 | 40.89301 | 9.50448 | 45 ft | 16 kts | 142° |
| 2026-04-28 21:14 | 40.89270 | 9.50553 | 45 ft | 14 kts | 103° |
| 2026-04-28 21:14 | 40.89275 | 9.50629 | 45 ft | 5 kts | 56° |
| 2026-04-28 21:14 | 40.89417 | 9.50901 | 45 ft | 87 kts | 52° |
| 2026-04-28 21:15 | 40.89961 | 9.51917 | 240 ft | 169 kts | 54° |
| 2026-04-28 21:15 | 40.90699 | 9.53222 | 1161 ft | 193 kts | 53° |
| 2026-04-28 21:15 | 40.91574 | 9.54618 | 2374 ft | 204 kts | 49° |
| 2026-04-28 21:15 | 40.92419 | 9.55937 | 3936 ft | 199 kts | 53° |
| 2026-04-28 21:16 | 40.93290 | 9.57456 | 4708 ft | 216 kts | 54° |
| 2026-04-28 21:16 | 40.94184 | 9.59037 | 4950 ft | 215 kts | 54° |
| 2026-04-28 21:16 | 40.95091 | 9.60635 | 4988 ft | 214 kts | 54° |
| 2026-04-28 21:16 | 40.95973 | 9.62196 | 4983 ft | 214 kts | 54° |
| 2026-04-28 21:17 | 40.96955 | 9.63948 | 5336 ft | 260 kts | 54° |
| 2026-04-28 21:17 | 40.98025 | 9.65877 | 6403 ft | 268 kts | 55° |
| 2026-04-28 21:17 | 40.99125 | 9.67889 | 6870 ft | 267 kts | 55° |
| 2026-04-28 21:17 | 41.00222 | 9.69900 | 6999 ft | 279 kts | 55° |
| 2026-04-28 21:18 | 41.01368 | 9.72014 | 6997 ft | 281 kts | 55° |
| 2026-04-28 21:18 | 41.02516 | 9.74130 | 7007 ft | 282 kts | 55° |
| 2026-04-28 21:18 | 41.03657 | 9.76237 | 7004 ft | 282 kts | 55° |
| 2026-04-28 21:18 | 41.04790 | 9.78322 | 7009 ft | 283 kts | 55° |
| 2026-04-28 21:19 | 41.05948 | 9.80447 | 7006 ft | 283 kts | 55° |
| 2026-04-28 21:19 | 41.07187 | 9.82498 | 7007 ft | 284 kts | 43° |
| 2026-04-28 21:19 | 41.08914 | 9.83734 | 7009 ft | 285 kts | 17° |
| 2026-04-28 21:19 | 41.10879 | 9.84119 | 7003 ft | 286 kts | 359° |
| 2026-04-28 21:20 | 41.12814 | 9.83686 | 6999 ft | 284 kts | 340° |
| 2026-04-28 21:20 | 41.14566 | 9.82473 | 7015 ft | 284 kts | 322° |
| 2026-04-28 21:20 | 41.15931 | 9.80624 | 7012 ft | 282 kts | 303° |
| 2026-04-28 21:20 | 41.16824 | 9.78314 | 7009 ft | 280 kts | 290° |
| 2026-04-28 21:21 | 41.17526 | 9.75902 | 7006 ft | 280 kts | 290° |
| 2026-04-28 21:21 | 41.18233 | 9.73486 | 7006 ft | 280 kts | 290° |
| 2026-04-28 21:21 | 41.18934 | 9.71092 | 6998 ft | 280 kts | 290° |
| 2026-04-28 21:21 | 41.19637 | 9.68689 | 7011 ft | 280 kts | 290° |
| 2026-04-28 21:22 | 41.20344 | 9.66264 | 7004 ft | 280 kts | 290° |
| 2026-04-28 21:22 | 41.21045 | 9.63860 | 7003 ft | 280 kts | 290° |
| 2026-04-28 21:22 | 41.21739 | 9.61475 | 7002 ft | 279 kts | 289° |
| 2026-04-28 21:22 | 41.22441 | 9.59059 | 7013 ft | 280 kts | 290° |
| 2026-04-28 21:23 | 41.23146 | 9.56628 | 6993 ft | 280 kts | 289° |
| 2026-04-28 21:23 | 41.23840 | 9.54233 | 7004 ft | 280 kts | 290° |
| 2026-04-28 21:23 | 41.24538 | 9.51815 | 7003 ft | 280 kts | 289° |
| 2026-04-28 21:23 | 41.25227 | 9.49430 | 7016 ft | 280 kts | 289° |
| 2026-04-28 21:24 | 41.25926 | 9.47003 | 7008 ft | 280 kts | 289° |
| 2026-04-28 21:24 | 41.26616 | 9.44604 | 7012 ft | 280 kts | 289° |
| 2026-04-28 21:24 | 41.27315 | 9.42170 | 7004 ft | 280 kts | 289° |
| 2026-04-28 21:24 | 41.28006 | 9.39760 | 6995 ft | 279 kts | 290° |
| 2026-04-28 21:25 | 41.28697 | 9.37347 | 7008 ft | 280 kts | 289° |
| 2026-04-28 21:25 | 41.29388 | 9.34927 | 7019 ft | 280 kts | 289° |
| 2026-04-28 21:25 | 41.30072 | 9.32529 | 7005 ft | 279 kts | 289° |
| 2026-04-28 21:25 | 41.30764 | 9.30101 | 7009 ft | 279 kts | 289° |
| 2026-04-28 21:26 | 41.31453 | 9.27682 | 7003 ft | 279 kts | 289° |
| 2026-04-28 21:26 | 41.32132 | 9.25290 | 6993 ft | 279 kts | 288° |
| 2026-04-28 21:26 | 41.32821 | 9.22860 | 6997 ft | 279 kts | 288° |
| 2026-04-28 21:26 | 41.33503 | 9.20452 | 7010 ft | 279 kts | 289° |
| 2026-04-28 21:27 | 41.34188 | 9.18025 | 7008 ft | 279 kts | 288° |
| 2026-04-28 21:27 | 41.34868 | 9.15616 | 7010 ft | 279 kts | 289° |
| 2026-04-28 21:27 | 41.35535 | 9.13251 | 6921 ft | 270 kts | 288° |
| 2026-04-28 21:27 | 41.36195 | 9.10917 | 6402 ft | 272 kts | 288° |
| 2026-04-28 21:28 | 41.36868 | 9.08531 | 5871 ft | 274 kts | 289° |
| 2026-04-28 21:28 | 41.37531 | 9.06177 | 5413 ft | 273 kts | 289° |
| 2026-04-28 21:28 | 41.38186 | 9.03851 | 4799 ft | 270 kts | 289° |
| 2026-04-28 21:28 | 41.38838 | 9.01526 | 4243 ft | 266 kts | 289° |
| 2026-04-28 21:29 | 41.39484 | 8.99193 | 4026 ft | 267 kts | 289° |
| 2026-04-28 21:29 | 41.40250 | 8.97014 | 3773 ft | 257 kts | 307° |
| 2026-04-28 21:29 | 41.41673 | 8.95623 | 3031 ft | 261 kts | 343° |
| 2026-04-28 21:29 | 41.43447 | 8.95629 | 2369 ft | 257 kts | 21° |
| 2026-04-28 21:30 | 41.44785 | 8.97047 | 2073 ft | 250 kts | 59° |
| 2026-04-28 21:30 | 41.45509 | 8.99168 | 1995 ft | 251 kts | 69° |
| 2026-04-28 21:30 | 41.45851 | 9.01297 | 2007 ft | 223 kts | 87° |
| 2026-04-28 21:30 | 41.46144 | 9.03106 | 2023 ft | 180 kts | 63° |
| 2026-04-28 21:31 | 41.46807 | 9.04378 | 1656 ft | 167 kts | 55° |
| 2026-04-28 21:31 | 41.47470 | 9.05529 | 1255 ft | 143 kts | 53° |
| 2026-04-28 21:31 | 41.48101 | 9.06514 | 694 ft | 137 kts | 53° |
| 2026-04-28 21:31 | 41.48694 | 9.07426 | 327 ft | 123 kts | 51° |
| 2026-04-28 21:32 | 41.49214 | 9.08229 | 120 ft | 109 kts | 45° |
| 2026-04-28 21:32 | 41.49759 | 9.09007 | 61 ft | 113 kts | 51° |
| 2026-04-28 21:32 | 41.50215 | 9.09675 | 69 ft | 77 kts | 53° |
| 2026-04-28 21:32 | 41.50433 | 9.10009 | 73 ft | 23 kts | 52° |
| 2026-04-28 21:33 | 41.50496 | 9.10136 | 72 ft | 7 kts | 308° |
| 2026-04-28 21:33 | 41.50465 | 9.10053 | 73 ft | 15 kts | 234° |
| 2026-04-28 21:33 | 41.50364 | 9.09910 | 72 ft | 27 kts | 226° |
| 2026-04-28 21:33 | 41.50232 | 9.09723 | 69 ft | 11 kts | 228° |
| 2026-04-28 21:34 | 41.50159 | 9.09735 | 68 ft | 7 kts | 130° |
| 2026-04-28 21:34 | 41.50100 | 9.09807 | 66 ft | 15 kts | 135° |
| 2026-04-28 21:34 | 41.50100 | 9.09890 | 66 ft | 7 kts | 42° |
| 2026-04-28 21:34 | 41.50142 | 9.09957 | 67 ft | 11 kts | 108° |
| 2026-04-28 21:35 | 41.50096 | 9.10006 | 66 ft | 7 kts | 194° |
| 2026-04-28 21:35 | 41.50073 | 9.09982 | 66 ft | 0 kts | 226° |